sensor_id;sensor_type;location;lat;lon;timestamp;P1;durP1;ratioP1;P2;durP2;ratioP2
70467;SDS011;57934;51.532;7.684;2022-08-19T00:00:04;18.08;;;13.88;;
70467;SDS011;57934;51.532;7.684;2022-08-19T00:02:30;14.18;;;12.88;;
70467;SDS011;57934;51.532;7.684;2022-08-19T00:04:56;16.52;;;14.90;;
70467;SDS011;57934;51.532;7.684;2022-08-19T00:07:21;15.63;;;13.82;;
70467;SDS011;57934;51.532;7.684;2022-08-19T00:09:47;17.38;;;14.90;;
70467;SDS011;57934;51.532;7.684;2022-08-19T00:12:13;17.33;;;15.38;;
70467;SDS011;57934;51.532;7.684;2022-08-19T00:14:39;18.85;;;15.38;;
70467;SDS011;57934;51.532;7.684;2022-08-19T00:17:06;17.75;;;16.05;;
70467;SDS011;57934;51.532;7.684;2022-08-19T00:19:32;20.83;;;16.13;;
70467;SDS011;57934;51.532;7.684;2022-08-19T00:21:58;18.55;;;16.63;;
70467;SDS011;57934;51.532;7.684;2022-08-19T00:24:24;19.27;;;17.27;;
70467;SDS011;57934;51.532;7.684;2022-08-19T00:26:50;19.70;;;17.63;;
70467;SDS011;57934;51.532;7.684;2022-08-19T00:29:18;19.30;;;17.30;;
70467;SDS011;57934;51.532;7.684;2022-08-19T00:31:44;23.35;;;18.63;;
70467;SDS011;57934;51.532;7.684;2022-08-19T00:34:10;21.98;;;18.70;;
70467;SDS011;57934;51.532;7.684;2022-08-19T00:36:37;21.20;;;18.60;;
70467;SDS011;57934;51.532;7.684;2022-08-19T00:39:03;22.30;;;19.42;;
70467;SDS011;57934;51.532;7.684;2022-08-19T00:41:29;24.20;;;20.77;;
70467;SDS011;57934;51.532;7.684;2022-08-19T00:46:23;24.77;;;21.92;;
70467;SDS011;57934;51.532;7.684;2022-08-19T00:48:49;24.08;;;21.55;;
70467;SDS011;57934;51.532;7.684;2022-08-19T00:51:15;24.92;;;22.10;;
70467;SDS011;57934;51.532;7.684;2022-08-19T00:53:41;24.63;;;21.88;;
70467;SDS011;57934;51.532;7.684;2022-08-19T00:56:09;29.10;;;22.95;;
70467;SDS011;57934;51.532;7.684;2022-08-19T00:58:36;26.75;;;22.92;;
70467;SDS011;57934;51.532;7.684;2022-08-19T01:01:03;27.67;;;24.40;;
70467;SDS011;57934;51.532;7.684;2022-08-19T01:03:29;28.67;;;23.08;;
70467;SDS011;57934;51.532;7.684;2022-08-19T01:05:55;30.45;;;24.58;;
70467;SDS011;57934;51.532;7.684;2022-08-19T01:08:21;26.35;;;23.65;;
70467;SDS011;57934;51.532;7.684;2022-08-19T01:10:49;29.27;;;25.10;;
70467;SDS011;57934;51.532;7.684;2022-08-19T01:13:16;29.40;;;24.15;;
70467;SDS011;57934;51.532;7.684;2022-08-19T01:15:43;27.60;;;24.67;;
70467;SDS011;57934;51.532;7.684;2022-08-19T01:18:11;28.45;;;25.15;;
70467;SDS011;57934;51.532;7.684;2022-08-19T01:20:37;27.95;;;24.80;;
70467;SDS011;57934;51.532;7.684;2022-08-19T01:23:04;29.98;;;26.25;;
70467;SDS011;57934;51.532;7.684;2022-08-19T01:25:39;28.35;;;25.25;;
70467;SDS011;57934;51.532;7.684;2022-08-19T01:28:06;30.45;;;25.77;;
70467;SDS011;57934;51.532;7.684;2022-08-19T01:30:34;33.20;;;25.52;;
70467;SDS011;57934;51.532;7.684;2022-08-19T01:33:00;30.15;;;27.02;;
70467;SDS011;57934;51.532;7.684;2022-08-19T01:35:30;29.80;;;25.13;;
70467;SDS011;57934;51.532;7.684;2022-08-19T01:37:58;27.60;;;24.60;;
70467;SDS011;57934;51.532;7.684;2022-08-19T01:40:25;32.50;;;26.05;;
70467;SDS011;57934;51.532;7.684;2022-08-19T01:42:52;30.33;;;26.17;;
70467;SDS011;57934;51.532;7.684;2022-08-19T01:45:19;29.85;;;26.63;;
70467;SDS011;57934;51.532;7.684;2022-08-19T01:47:46;29.55;;;26.33;;
70467;SDS011;57934;51.532;7.684;2022-08-19T01:50:12;27.92;;;25.02;;
70467;SDS011;57934;51.532;7.684;2022-08-19T01:52:39;30.00;;;26.45;;
70467;SDS011;57934;51.532;7.684;2022-08-19T01:55:07;30.63;;;27.08;;
70467;SDS011;57934;51.532;7.684;2022-08-19T01:57:33;31.45;;;28.05;;
70467;SDS011;57934;51.532;7.684;2022-08-19T01:59:59;32.33;;;28.17;;
70467;SDS011;57934;51.532;7.684;2022-08-19T02:02:26;31.63;;;27.13;;
70467;SDS011;57934;51.532;7.684;2022-08-19T02:04:51;33.33;;;27.63;;
70467;SDS011;57934;51.532;7.684;2022-08-19T02:07:20;31.38;;;27.90;;
70467;SDS011;57934;51.532;7.684;2022-08-19T02:09:49;35.10;;;29.98;;
70467;SDS011;57934;51.532;7.684;2022-08-19T02:12:15;38.90;;;31.60;;
70467;SDS011;57934;51.532;7.684;2022-08-19T02:14:41;34.88;;;29.23;;
70467;SDS011;57934;51.532;7.684;2022-08-19T02:17:07;36.53;;;31.30;;
70467;SDS011;57934;51.532;7.684;2022-08-19T02:19:33;37.03;;;30.42;;
70467;SDS011;57934;51.532;7.684;2022-08-19T02:21:59;37.15;;;29.83;;
70467;SDS011;57934;51.532;7.684;2022-08-19T02:24:25;38.63;;;31.92;;
70467;SDS011;57934;51.532;7.684;2022-08-19T02:26:51;36.55;;;30.10;;
70467;SDS011;57934;51.532;7.684;2022-08-19T02:29:17;36.65;;;31.85;;
70467;SDS011;57934;51.532;7.684;2022-08-19T02:31:43;36.55;;;29.50;;
70467;SDS011;57934;51.532;7.684;2022-08-19T02:34:08;36.65;;;30.23;;
70467;SDS011;57934;51.532;7.684;2022-08-19T02:36:34;36.88;;;29.33;;
70467;SDS011;57934;51.532;7.684;2022-08-19T02:39:00;35.20;;;30.05;;
70467;SDS011;57934;51.532;7.684;2022-08-19T02:41:27;36.88;;;29.58;;
70467;SDS011;57934;51.532;7.684;2022-08-19T02:43:54;33.10;;;29.50;;
70467;SDS011;57934;51.532;7.684;2022-08-19T02:46:21;37.15;;;30.65;;
70467;SDS011;57934;51.532;7.684;2022-08-19T02:48:51;35.22;;;30.00;;
70467;SDS011;57934;51.532;7.684;2022-08-19T02:51:21;39.83;;;31.73;;
70467;SDS011;57934;51.532;7.684;2022-08-19T02:53:47;34.88;;;29.50;;
70467;SDS011;57934;51.532;7.684;2022-08-19T02:56:13;41.28;;;32.75;;
70467;SDS011;57934;51.532;7.684;2022-08-19T02:58:39;35.15;;;31.20;;
70467;SDS011;57934;51.532;7.684;2022-08-19T03:01:05;37.60;;;31.92;;
70467;SDS011;57934;51.532;7.684;2022-08-19T03:03:31;43.55;;;32.35;;
70467;SDS011;57934;51.532;7.684;2022-08-19T03:06:08;38.30;;;31.08;;
70467;SDS011;57934;51.532;7.684;2022-08-19T03:08:34;38.85;;;31.20;;
70467;SDS011;57934;51.532;7.684;2022-08-19T03:11:00;40.65;;;30.75;;
70467;SDS011;57934;51.532;7.684;2022-08-19T03:13:26;40.00;;;31.85;;
70467;SDS011;57934;51.532;7.684;2022-08-19T03:15:51;37.00;;;30.65;;
70467;SDS011;57934;51.532;7.684;2022-08-19T03:18:17;38.60;;;31.15;;
70467;SDS011;57934;51.532;7.684;2022-08-19T03:20:44;38.53;;;31.73;;
70467;SDS011;57934;51.532;7.684;2022-08-19T03:23:10;39.40;;;31.08;;
70467;SDS011;57934;51.532;7.684;2022-08-19T03:25:39;38.78;;;31.17;;
70467;SDS011;57934;51.532;7.684;2022-08-19T03:28:07;40.67;;;30.80;;
70467;SDS011;57934;51.532;7.684;2022-08-19T03:30:33;40.63;;;31.60;;
70467;SDS011;57934;51.532;7.684;2022-08-19T03:32:59;44.53;;;32.15;;
70467;SDS011;57934;51.532;7.684;2022-08-19T03:35:25;38.78;;;29.48;;
70467;SDS011;57934;51.532;7.684;2022-08-19T03:37:50;35.53;;;30.83;;
70467;SDS011;57934;51.532;7.684;2022-08-19T03:40:16;40.88;;;31.75;;
70467;SDS011;57934;51.532;7.684;2022-08-19T03:42:44;38.92;;;32.05;;
70467;SDS011;57934;51.532;7.684;2022-08-19T03:45:11;43.22;;;31.88;;
70467;SDS011;57934;51.532;7.684;2022-08-19T03:47:37;38.88;;;32.65;;
70467;SDS011;57934;51.532;7.684;2022-08-19T03:50:03;38.45;;;31.35;;
70467;SDS011;57934;51.532;7.684;2022-08-19T03:52:29;39.67;;;32.03;;
70467;SDS011;57934;51.532;7.684;2022-08-19T03:54:55;39.55;;;30.73;;
70467;SDS011;57934;51.532;7.684;2022-08-19T03:57:21;41.28;;;30.45;;
70467;SDS011;57934;51.532;7.684;2022-08-19T03:59:47;40.22;;;32.50;;
70467;SDS011;57934;51.532;7.684;2022-08-19T04:02:13;40.78;;;32.80;;
70467;SDS011;57934;51.532;7.684;2022-08-19T04:04:39;37.92;;;30.90;;
70467;SDS011;57934;51.532;7.684;2022-08-19T04:07:05;39.38;;;31.60;;
70467;SDS011;57934;51.532;7.684;2022-08-19T04:09:32;42.15;;;31.35;;
70467;SDS011;57934;51.532;7.684;2022-08-19T04:11:58;40.58;;;31.98;;
70467;SDS011;57934;51.532;7.684;2022-08-19T04:14:28;40.63;;;32.58;;
70467;SDS011;57934;51.532;7.684;2022-08-19T04:16:58;41.80;;;32.78;;
70467;SDS011;57934;51.532;7.684;2022-08-19T04:19:24;44.17;;;33.28;;
70467;SDS011;57934;51.532;7.684;2022-08-19T04:21:51;41.20;;;32.78;;
70467;SDS011;57934;51.532;7.684;2022-08-19T04:24:17;40.65;;;33.35;;
70467;SDS011;57934;51.532;7.684;2022-08-19T04:26:43;41.35;;;32.90;;
70467;SDS011;57934;51.532;7.684;2022-08-19T04:29:11;43.67;;;32.58;;
70467;SDS011;57934;51.532;7.684;2022-08-19T04:31:37;40.35;;;31.77;;
70467;SDS011;57934;51.532;7.684;2022-08-19T04:34:05;42.92;;;32.88;;
70467;SDS011;57934;51.532;7.684;2022-08-19T04:36:32;44.03;;;32.78;;
70467;SDS011;57934;51.532;7.684;2022-08-19T04:38:59;43.65;;;34.40;;
70467;SDS011;57934;51.532;7.684;2022-08-19T04:41:26;44.33;;;33.05;;
70467;SDS011;57934;51.532;7.684;2022-08-19T04:44:11;40.83;;;32.70;;
70467;SDS011;57934;51.532;7.684;2022-08-19T04:46:37;42.78;;;31.88;;
70467;SDS011;57934;51.532;7.684;2022-08-19T04:49:03;39.92;;;32.03;;
70467;SDS011;57934;51.532;7.684;2022-08-19T04:51:30;39.50;;;30.42;;
70467;SDS011;57934;51.532;7.684;2022-08-19T04:53:57;41.67;;;31.58;;
70467;SDS011;57934;51.532;7.684;2022-08-19T04:56:22;38.88;;;31.80;;
70467;SDS011;57934;51.532;7.684;2022-08-19T04:58:52;39.42;;;31.00;;
70467;SDS011;57934;51.532;7.684;2022-08-19T05:01:19;45.65;;;32.00;;
70467;SDS011;57934;51.532;7.684;2022-08-19T05:03:45;36.15;;;30.70;;
70467;SDS011;57934;51.532;7.684;2022-08-19T05:06:12;40.58;;;30.83;;
70467;SDS011;57934;51.532;7.684;2022-08-19T05:08:39;36.75;;;30.73;;
70467;SDS011;57934;51.532;7.684;2022-08-19T05:11:08;36.15;;;30.60;;
70467;SDS011;57934;51.532;7.684;2022-08-19T05:13:35;36.00;;;29.25;;
70467;SDS011;57934;51.532;7.684;2022-08-19T05:16:00;38.67;;;30.65;;
70467;SDS011;57934;51.532;7.684;2022-08-19T05:18:26;45.35;;;30.65;;
70467;SDS011;57934;51.532;7.684;2022-08-19T05:21:11;43.20;;;31.00;;
70467;SDS011;57934;51.532;7.684;2022-08-19T05:23:56;36.88;;;30.02;;
70467;SDS011;57934;51.532;7.684;2022-08-19T05:26:23;40.88;;;31.27;;
70467;SDS011;57934;51.532;7.684;2022-08-19T05:28:54;40.88;;;32.10;;
70467;SDS011;57934;51.532;7.684;2022-08-19T05:31:21;42.65;;;30.95;;
70467;SDS011;57934;51.532;7.684;2022-08-19T05:33:47;39.47;;;30.50;;
70467;SDS011;57934;51.532;7.684;2022-08-19T05:36:13;41.83;;;32.17;;
70467;SDS011;57934;51.532;7.684;2022-08-19T05:38:39;44.72;;;32.55;;
70467;SDS011;57934;51.532;7.684;2022-08-19T05:41:09;38.45;;;32.40;;
70467;SDS011;57934;51.532;7.684;2022-08-19T05:43:35;42.88;;;31.65;;
70467;SDS011;57934;51.532;7.684;2022-08-19T05:46:01;36.97;;;31.33;;
70467;SDS011;57934;51.532;7.684;2022-08-19T05:48:27;40.20;;;31.90;;
70467;SDS011;57934;51.532;7.684;2022-08-19T05:50:53;39.33;;;31.15;;
70467;SDS011;57934;51.532;7.684;2022-08-19T05:53:19;41.60;;;31.95;;
70467;SDS011;57934;51.532;7.684;2022-08-19T05:55:45;38.08;;;29.83;;
70467;SDS011;57934;51.532;7.684;2022-08-19T05:58:10;42.05;;;31.10;;
70467;SDS011;57934;51.532;7.684;2022-08-19T06:00:37;36.05;;;28.65;;
70467;SDS011;57934;51.532;7.684;2022-08-19T06:03:03;38.97;;;30.33;;
70467;SDS011;57934;51.532;7.684;2022-08-19T06:05:29;41.13;;;28.48;;
70467;SDS011;57934;51.532;7.684;2022-08-19T06:07:55;35.60;;;29.00;;
70467;SDS011;57934;51.532;7.684;2022-08-19T06:10:21;38.75;;;29.02;;
70467;SDS011;57934;51.532;7.684;2022-08-19T06:12:48;36.70;;;28.55;;
70467;SDS011;57934;51.532;7.684;2022-08-19T06:15:14;37.50;;;28.98;;
70467;SDS011;57934;51.532;7.684;2022-08-19T06:17:40;35.10;;;27.48;;
70467;SDS011;57934;51.532;7.684;2022-08-19T06:20:08;34.17;;;27.92;;
70467;SDS011;57934;51.532;7.684;2022-08-19T06:22:37;32.28;;;27.92;;
70467;SDS011;57934;51.532;7.684;2022-08-19T06:25:03;37.65;;;27.30;;
70467;SDS011;57934;51.532;7.684;2022-08-19T06:27:29;33.85;;;26.13;;
70467;SDS011;57934;51.532;7.684;2022-08-19T06:29:57;34.38;;;26.88;;
70467;SDS011;57934;51.532;7.684;2022-08-19T06:32:22;34.75;;;26.52;;
70467;SDS011;57934;51.532;7.684;2022-08-19T06:34:48;29.50;;;24.98;;
70467;SDS011;57934;51.532;7.684;2022-08-19T06:37:14;31.90;;;26.17;;
70467;SDS011;57934;51.532;7.684;2022-08-19T06:39:41;30.20;;;26.42;;
70467;SDS011;57934;51.532;7.684;2022-08-19T06:42:07;36.47;;;26.73;;
70467;SDS011;57934;51.532;7.684;2022-08-19T06:44:35;31.63;;;25.42;;
70467;SDS011;57934;51.532;7.684;2022-08-19T06:47:02;33.78;;;26.98;;
70467;SDS011;57934;51.532;7.684;2022-08-19T06:49:28;32.95;;;26.67;;
70467;SDS011;57934;51.532;7.684;2022-08-19T06:51:56;33.65;;;26.67;;
70467;SDS011;57934;51.532;7.684;2022-08-19T06:54:23;35.60;;;26.95;;
70467;SDS011;57934;51.532;7.684;2022-08-19T06:56:50;35.80;;;25.45;;
70467;SDS011;57934;51.532;7.684;2022-08-19T06:59:20;32.42;;;25.52;;
70467;SDS011;57934;51.532;7.684;2022-08-19T07:01:48;32.05;;;25.42;;
70467;SDS011;57934;51.532;7.684;2022-08-19T07:04:15;31.85;;;25.30;;
70467;SDS011;57934;51.532;7.684;2022-08-19T07:06:42;30.00;;;24.95;;
70467;SDS011;57934;51.532;7.684;2022-08-19T07:09:09;32.20;;;24.90;;
70467;SDS011;57934;51.532;7.684;2022-08-19T07:11:35;32.58;;;25.70;;
70467;SDS011;57934;51.532;7.684;2022-08-19T07:14:01;36.83;;;25.13;;
70467;SDS011;57934;51.532;7.684;2022-08-19T07:16:27;29.77;;;23.40;;
70467;SDS011;57934;51.532;7.684;2022-08-19T07:18:53;29.52;;;23.63;;
70467;SDS011;57934;51.532;7.684;2022-08-19T07:21:24;30.63;;;23.63;;
70467;SDS011;57934;51.532;7.684;2022-08-19T07:23:50;29.20;;;23.85;;
70467;SDS011;57934;51.532;7.684;2022-08-19T07:26:18;30.67;;;22.38;;
70467;SDS011;57934;51.532;7.684;2022-08-19T07:28:45;25.70;;;21.27;;
70467;SDS011;57934;51.532;7.684;2022-08-19T07:31:12;24.35;;;21.70;;
70467;SDS011;57934;51.532;7.684;2022-08-19T07:33:39;24.75;;;20.13;;
70467;SDS011;57934;51.532;7.684;2022-08-19T07:36:05;23.50;;;20.45;;
70467;SDS011;57934;51.532;7.684;2022-08-19T07:38:32;25.75;;;20.00;;
70467;SDS011;57934;51.532;7.684;2022-08-19T07:40:57;26.83;;;19.83;;
70467;SDS011;57934;51.532;7.684;2022-08-19T07:43:24;22.80;;;19.67;;
70467;SDS011;57934;51.532;7.684;2022-08-19T07:45:52;21.95;;;18.65;;
70467;SDS011;57934;51.532;7.684;2022-08-19T07:48:25;22.17;;;18.92;;
70467;SDS011;57934;51.532;7.684;2022-08-19T07:50:54;28.63;;;21.20;;
70467;SDS011;57934;51.532;7.684;2022-08-19T07:53:21;24.98;;;21.27;;
70467;SDS011;57934;51.532;7.684;2022-08-19T07:55:47;22.27;;;19.88;;
70467;SDS011;57934;51.532;7.684;2022-08-19T07:58:14;26.33;;;20.52;;
70467;SDS011;57934;51.532;7.684;2022-08-19T08:00:41;26.00;;;19.85;;
70467;SDS011;57934;51.532;7.684;2022-08-19T08:03:07;26.73;;;21.17;;
70467;SDS011;57934;51.532;7.684;2022-08-19T08:05:34;28.58;;;20.30;;
70467;SDS011;57934;51.532;7.684;2022-08-19T08:08:18;24.10;;;18.70;;
70467;SDS011;57934;51.532;7.684;2022-08-19T08:11:08;29.55;;;20.75;;
70467;SDS011;57934;51.532;7.684;2022-08-19T08:13:34;19.65;;;16.83;;
70467;SDS011;57934;51.532;7.684;2022-08-19T08:16:03;20.42;;;18.10;;
70467;SDS011;57934;51.532;7.684;2022-08-19T08:18:29;29.80;;;17.30;;
70467;SDS011;57934;51.532;7.684;2022-08-19T08:20:55;23.88;;;17.67;;
70467;SDS011;57934;51.532;7.684;2022-08-19T08:23:21;16.98;;;14.43;;
70467;SDS011;57934;51.532;7.684;2022-08-19T08:25:52;17.67;;;14.15;;
70467;SDS011;57934;51.532;7.684;2022-08-19T08:28:18;16.25;;;13.35;;
70467;SDS011;57934;51.532;7.684;2022-08-19T08:30:44;12.82;;;11.50;;
70467;SDS011;57934;51.532;7.684;2022-08-19T08:33:17;22.20;;;13.80;;
70467;SDS011;57934;51.532;7.684;2022-08-19T08:35:43;18.00;;;15.13;;
70467;SDS011;57934;51.532;7.684;2022-08-19T08:38:09;14.82;;;12.30;;
70467;SDS011;57934;51.532;7.684;2022-08-19T08:40:39;14.20;;;10.70;;
70467;SDS011;57934;51.532;7.684;2022-08-19T08:45:35;15.63;;;13.85;;
70467;SDS011;57934;51.532;7.684;2022-08-19T08:48:02;15.43;;;13.02;;
70467;SDS011;57934;51.532;7.684;2022-08-19T08:50:32;12.20;;;10.93;;
70467;SDS011;57934;51.532;7.684;2022-08-19T08:53:01;11.20;;;10.07;;
70467;SDS011;57934;51.532;7.684;2022-08-19T08:55:29;15.80;;;11.43;;
70467;SDS011;57934;51.532;7.684;2022-08-19T08:57:59;14.10;;;11.20;;
70467;SDS011;57934;51.532;7.684;2022-08-19T09:02:52;13.30;;;11.93;;
70467;SDS011;57934;51.532;7.684;2022-08-19T09:05:19;14.43;;;11.45;;
70467;SDS011;57934;51.532;7.684;2022-08-19T09:10:28;13.13;;;11.68;;
70467;SDS011;57934;51.532;7.684;2022-08-19T09:13:38;14.25;;;12.68;;
70467;SDS011;57934;51.532;7.684;2022-08-19T09:15:45;12.80;;;10.68;;
70467;SDS011;57934;51.532;7.684;2022-08-19T09:18:11;11.65;;;10.43;;
70467;SDS011;57934;51.532;7.684;2022-08-19T09:20:37;13.70;;;12.38;;
70467;SDS011;57934;51.532;7.684;2022-08-19T09:23:03;16.60;;;12.23;;
70467;SDS011;57934;51.532;7.684;2022-08-19T09:25:29;12.57;;;10.23;;
70467;SDS011;57934;51.532;7.684;2022-08-19T09:27:57;11.45;;;10.32;;
70467;SDS011;57934;51.532;7.684;2022-08-19T09:30:24;13.35;;;9.93;;
70467;SDS011;57934;51.532;7.684;2022-08-19T09:32:50;13.43;;;9.55;;
70467;SDS011;57934;51.532;7.684;2022-08-19T09:35:18;11.38;;;9.55;;
70467;SDS011;57934;51.532;7.684;2022-08-19T09:37:45;10.48;;;8.98;;
70467;SDS011;57934;51.532;7.684;2022-08-19T09:40:11;14.82;;;9.38;;
70467;SDS011;57934;51.532;7.684;2022-08-19T09:42:37;13.30;;;10.10;;
70467;SDS011;57934;51.532;7.684;2022-08-19T09:45:03;9.98;;;9.00;;
70467;SDS011;57934;51.532;7.684;2022-08-19T09:47:29;12.07;;;9.95;;
70467;SDS011;57934;51.532;7.684;2022-08-19T09:49:55;12.25;;;10.85;;
70467;SDS011;57934;51.532;7.684;2022-08-19T09:52:21;15.68;;;10.15;;
70467;SDS011;57934;51.532;7.684;2022-08-19T09:54:47;9.20;;;8.38;;
70467;SDS011;57934;51.532;7.684;2022-08-19T09:57:12;8.05;;;7.35;;
70467;SDS011;57934;51.532;7.684;2022-08-19T09:59:38;12.60;;;8.38;;
70467;SDS011;57934;51.532;7.684;2022-08-19T10:02:04;10.35;;;7.72;;
70467;SDS011;57934;51.532;7.684;2022-08-19T10:04:30;9.65;;;8.70;;
70467;SDS011;57934;51.532;7.684;2022-08-19T10:07:14;10.85;;;8.05;;
70467;SDS011;57934;51.532;7.684;2022-08-19T10:09:40;8.85;;;7.22;;
70467;SDS011;57934;51.532;7.684;2022-08-19T10:12:06;7.90;;;5.93;;
70467;SDS011;57934;51.532;7.684;2022-08-19T10:14:33;8.90;;;6.10;;
70467;SDS011;57934;51.532;7.684;2022-08-19T10:16:59;10.93;;;9.15;;
70467;SDS011;57934;51.532;7.684;2022-08-19T10:19:28;8.73;;;7.60;;
70467;SDS011;57934;51.532;7.684;2022-08-19T10:21:58;9.18;;;8.20;;
70467;SDS011;57934;51.532;7.684;2022-08-19T10:24:23;10.07;;;9.07;;
70467;SDS011;57934;51.532;7.684;2022-08-19T10:26:51;13.38;;;10.73;;
70467;SDS011;57934;51.532;7.684;2022-08-19T10:29:17;13.82;;;11.52;;
70467;SDS011;57934;51.532;7.684;2022-08-19T10:31:42;13.15;;;11.82;;
70467;SDS011;57934;51.532;7.684;2022-08-19T10:34:08;14.10;;;10.70;;
70467;SDS011;57934;51.532;7.684;2022-08-19T10:36:35;12.35;;;10.75;;
70467;SDS011;57934;51.532;7.684;2022-08-19T10:39:06;12.60;;;11.30;;
70467;SDS011;57934;51.532;7.684;2022-08-19T10:41:34;10.05;;;9.05;;
70467;SDS011;57934;51.532;7.684;2022-08-19T10:44:01;9.18;;;8.27;;
70467;SDS011;57934;51.532;7.684;2022-08-19T10:46:27;11.13;;;9.32;;
70467;SDS011;57934;51.532;7.684;2022-08-19T10:48:53;11.88;;;9.00;;
70467;SDS011;57934;51.532;7.684;2022-08-19T10:51:19;9.50;;;8.65;;
70467;SDS011;57934;51.532;7.684;2022-08-19T10:56:29;9.25;;;8.38;;
70467;SDS011;57934;51.532;7.684;2022-08-19T10:59:14;9.07;;;8.23;;
70467;SDS011;57934;51.532;7.684;2022-08-19T11:01:41;9.68;;;8.70;;
70467;SDS011;57934;51.532;7.684;2022-08-19T11:04:07;8.98;;;8.07;;
70467;SDS011;57934;51.532;7.684;2022-08-19T11:06:36;10.73;;;8.00;;
70467;SDS011;57934;51.532;7.684;2022-08-19T11:09:02;9.88;;;7.60;;
70467;SDS011;57934;51.532;7.684;2022-08-19T11:11:28;9.32;;;6.35;;
70467;SDS011;57934;51.532;7.684;2022-08-19T11:13:54;7.95;;;6.88;;
70467;SDS011;57934;51.532;7.684;2022-08-19T11:16:20;11.13;;;8.18;;
70467;SDS011;57934;51.532;7.684;2022-08-19T11:18:48;8.45;;;7.63;;
70467;SDS011;57934;51.532;7.684;2022-08-19T11:21:19;10.65;;;8.20;;
70467;SDS011;57934;51.532;7.684;2022-08-19T11:23:46;9.13;;;8.23;;
70467;SDS011;57934;51.532;7.684;2022-08-19T11:26:12;11.48;;;7.93;;
70467;SDS011;57934;51.532;7.684;2022-08-19T11:28:38;7.30;;;6.60;;
70467;SDS011;57934;51.532;7.684;2022-08-19T11:31:09;9.55;;;6.80;;
70467;SDS011;57934;51.532;7.684;2022-08-19T11:33:35;9.25;;;6.85;;
70467;SDS011;57934;51.532;7.684;2022-08-19T11:36:00;7.57;;;6.88;;
70467;SDS011;57934;51.532;7.684;2022-08-19T11:38:27;8.43;;;5.75;;
70467;SDS011;57934;51.532;7.684;2022-08-19T11:40:56;6.28;;;5.28;;
70467;SDS011;57934;51.532;7.684;2022-08-19T11:43:22;8.10;;;5.60;;
70467;SDS011;57934;51.532;7.684;2022-08-19T11:45:48;7.43;;;6.72;;
70467;SDS011;57934;51.532;7.684;2022-08-19T11:48:14;9.60;;;8.30;;
70467;SDS011;57934;51.532;7.684;2022-08-19T11:50:39;10.55;;;8.05;;
70467;SDS011;57934;51.532;7.684;2022-08-19T11:53:07;9.60;;;8.50;;
70467;SDS011;57934;51.532;7.684;2022-08-19T11:55:36;10.68;;;9.57;;
70467;SDS011;57934;51.532;7.684;2022-08-19T11:58:01;11.90;;;8.77;;
70467;SDS011;57934;51.532;7.684;2022-08-19T12:00:27;9.77;;;8.40;;
70467;SDS011;57934;51.532;7.684;2022-08-19T12:02:53;7.65;;;6.88;;
70467;SDS011;57934;51.532;7.684;2022-08-19T12:05:20;9.13;;;8.07;;
70467;SDS011;57934;51.532;7.684;2022-08-19T12:07:46;6.88;;;5.63;;
70467;SDS011;57934;51.532;7.684;2022-08-19T12:10:12;5.88;;;5.28;;
70467;SDS011;57934;51.532;7.684;2022-08-19T12:12:37;6.50;;;5.30;;
70467;SDS011;57934;51.532;7.684;2022-08-19T12:15:08;8.82;;;8.10;;
70467;SDS011;57934;51.532;7.684;2022-08-19T12:17:34;9.88;;;8.73;;
70467;SDS011;57934;51.532;7.684;2022-08-19T12:20:00;9.35;;;8.55;;
70467;SDS011;57934;51.532;7.684;2022-08-19T12:22:25;8.70;;;7.97;;
70467;SDS011;57934;51.532;7.684;2022-08-19T12:24:51;9.70;;;8.63;;
70467;SDS011;57934;51.532;7.684;2022-08-19T12:27:18;11.32;;;10.25;;
70467;SDS011;57934;51.532;7.684;2022-08-19T12:29:44;8.40;;;7.50;;
70467;SDS011;57934;51.532;7.684;2022-08-19T12:32:10;10.20;;;9.18;;
70467;SDS011;57934;51.532;7.684;2022-08-19T12:34:35;8.38;;;7.40;;
70467;SDS011;57934;51.532;7.684;2022-08-19T12:37:02;7.65;;;6.97;;
70467;SDS011;57934;51.532;7.684;2022-08-19T12:39:29;8.77;;;8.05;;
70467;SDS011;57934;51.532;7.684;2022-08-19T12:41:56;9.50;;;7.68;;
70467;SDS011;57934;51.532;7.684;2022-08-19T12:44:23;7.78;;;6.95;;
70467;SDS011;57934;51.532;7.684;2022-08-19T12:46:49;8.15;;;7.38;;
70467;SDS011;57934;51.532;7.684;2022-08-19T12:49:14;8.82;;;7.43;;
70467;SDS011;57934;51.532;7.684;2022-08-19T12:51:41;9.80;;;6.43;;
70467;SDS011;57934;51.532;7.684;2022-08-19T12:54:07;8.75;;;7.95;;
70467;SDS011;57934;51.532;7.684;2022-08-19T12:56:32;8.55;;;7.75;;
70467;SDS011;57934;51.532;7.684;2022-08-19T12:59:00;10.80;;;7.55;;
70467;SDS011;57934;51.532;7.684;2022-08-19T13:01:26;9.38;;;7.47;;
70467;SDS011;57934;51.532;7.684;2022-08-19T13:03:53;9.05;;;7.00;;
70467;SDS011;57934;51.532;7.684;2022-08-19T13:06:19;15.73;;;9.63;;
70467;SDS011;57934;51.532;7.684;2022-08-19T13:08:45;10.90;;;9.27;;
70467;SDS011;57934;51.532;7.684;2022-08-19T13:11:12;12.57;;;10.68;;
70467;SDS011;57934;51.532;7.684;2022-08-19T13:13:39;11.88;;;10.75;;
70467;SDS011;57934;51.532;7.684;2022-08-19T13:16:07;12.30;;;9.25;;
70467;SDS011;57934;51.532;7.684;2022-08-19T13:18:33;10.90;;;8.65;;
70467;SDS011;57934;51.532;7.684;2022-08-19T13:21:02;9.65;;;8.63;;
70467;SDS011;57934;51.532;7.684;2022-08-19T13:23:29;9.95;;;8.35;;
70467;SDS011;57934;51.532;7.684;2022-08-19T13:25:59;9.70;;;8.80;;
70467;SDS011;57934;51.532;7.684;2022-08-19T13:28:25;9.55;;;8.38;;
70467;SDS011;57934;51.532;7.684;2022-08-19T13:30:51;10.25;;;8.82;;
70467;SDS011;57934;51.532;7.684;2022-08-19T13:33:35;9.02;;;7.43;;
70467;SDS011;57934;51.532;7.684;2022-08-19T13:36:01;11.63;;;10.73;;
70467;SDS011;57934;51.532;7.684;2022-08-19T13:38:27;13.35;;;10.48;;
70467;SDS011;57934;51.532;7.684;2022-08-19T13:40:54;10.50;;;9.50;;
70467;SDS011;57934;51.532;7.684;2022-08-19T13:43:21;10.45;;;9.30;;
70467;SDS011;57934;51.532;7.684;2022-08-19T13:45:50;10.80;;;9.68;;
70467;SDS011;57934;51.532;7.684;2022-08-19T13:48:19;11.85;;;9.65;;
70467;SDS011;57934;51.532;7.684;2022-08-19T13:50:45;16.80;;;11.95;;
70467;SDS011;57934;51.532;7.684;2022-08-19T13:53:12;12.35;;;11.02;;
70467;SDS011;57934;51.532;7.684;2022-08-19T13:55:38;12.50;;;10.85;;
70467;SDS011;57934;51.532;7.684;2022-08-19T13:58:05;11.88;;;9.65;;
70467;SDS011;57934;51.532;7.684;2022-08-19T14:00:33;13.77;;;11.68;;
70467;SDS011;57934;51.532;7.684;2022-08-19T14:02:59;12.95;;;11.23;;
70467;SDS011;57934;51.532;7.684;2022-08-19T14:05:26;12.48;;;11.23;;
70467;SDS011;57934;51.532;7.684;2022-08-19T14:07:52;11.32;;;10.25;;
70467;SDS011;57934;51.532;7.684;2022-08-19T14:10:19;11.05;;;10.00;;
70467;SDS011;57934;51.532;7.684;2022-08-19T14:12:45;12.55;;;11.32;;
70467;SDS011;57934;51.532;7.684;2022-08-19T14:15:11;11.85;;;10.10;;
70467;SDS011;57934;51.532;7.684;2022-08-19T14:17:38;12.60;;;9.07;;
70467;SDS011;57934;51.532;7.684;2022-08-19T14:20:05;9.52;;;8.35;;
70467;SDS011;57934;51.532;7.684;2022-08-19T14:22:33;8.45;;;7.78;;
70467;SDS011;57934;51.532;7.684;2022-08-19T14:24:59;9.45;;;8.55;;
70467;SDS011;57934;51.532;7.684;2022-08-19T14:27:25;8.23;;;7.43;;
70467;SDS011;57934;51.532;7.684;2022-08-19T14:29:51;9.77;;;7.50;;
70467;SDS011;57934;51.532;7.684;2022-08-19T14:32:17;8.02;;;7.32;;
70467;SDS011;57934;51.532;7.684;2022-08-19T14:34:43;7.93;;;7.20;;
70467;SDS011;57934;51.532;7.684;2022-08-19T14:37:11;7.38;;;6.78;;
70467;SDS011;57934;51.532;7.684;2022-08-19T14:39:40;8.35;;;7.55;;